createdAt,value
2023-09-14T00:00:56.227Z,3.45
2023-09-14T00:03:23.223Z,4.07
2023-09-14T00:05:51.409Z,3.15
2023-09-14T00:08:18.658Z,3.60
2023-09-14T00:10:45.426Z,3.00
2023-09-14T00:13:12.269Z,3.25
2023-09-14T00:15:42.141Z,3.03
2023-09-14T00:18:09.670Z,3.05
2023-09-14T00:20:36.467Z,3.10
2023-09-14T00:23:04.828Z,2.80
2023-09-14T00:25:31.772Z,3.30
2023-09-14T00:27:59.020Z,3.05
2023-09-14T00:30:25.827Z,3.38
2023-09-14T00:32:54.060Z,3.22
2023-09-14T00:35:21.254Z,3.20
2023-09-14T00:37:49.344Z,3.08
2023-09-14T00:40:17.187Z,3.20
2023-09-14T00:42:49.449Z,2.60
2023-09-14T00:45:18.556Z,3.17
2023-09-14T00:47:48.147Z,2.80
2023-09-14T00:50:17.942Z,2.42
2023-09-14T00:52:53.126Z,2.70
2023-09-14T00:55:20.337Z,3.05
2023-09-14T00:57:53.480Z,2.70
2023-09-14T01:00:21.500Z,2.45
2023-09-14T01:02:53.205Z,2.60
2023-09-14T01:05:21.787Z,2.33
2023-09-14T01:07:49.161Z,2.70
2023-09-14T01:10:16.904Z,3.10
2023-09-14T01:12:47.488Z,2.70
2023-09-14T01:15:21.836Z,2.78
2023-09-14T01:18:02.561Z,2.60
2023-09-14T01:20:42.847Z,2.60
2023-09-14T01:23:48.905Z,2.50
2023-09-14T01:26:17.013Z,2.70
2023-09-14T01:28:44.104Z,2.58
2023-09-14T01:31:11.298Z,2.75
2023-09-14T01:33:38.949Z,2.30
2023-09-14T01:36:19.026Z,2.55
2023-09-14T01:38:48.265Z,3.08
2023-09-14T01:41:16.444Z,2.97
2023-09-14T01:43:46.496Z,2.90
2023-09-14T01:46:14.087Z,2.78
2023-09-14T01:48:41.034Z,2.95
2023-09-14T01:51:07.891Z,2.95
2023-09-14T01:53:34.903Z,2.83
2023-09-14T01:56:01.718Z,3.00
2023-09-14T01:58:30.471Z,2.97
2023-09-14T02:00:58.020Z,2.60
2023-09-14T02:03:25.326Z,2.88
2023-09-14T02:06:02.446Z,3.05
2023-09-14T02:08:33.165Z,3.00
2023-09-14T02:11:01.789Z,2.85
2023-09-14T02:13:30.101Z,3.00
2023-09-14T02:15:57.446Z,2.67
2023-09-14T02:18:24.270Z,3.15
2023-09-14T02:20:51.085Z,3.00
2023-09-14T02:23:19.036Z,3.10
2023-09-14T02:25:46.490Z,2.65
2023-09-14T02:28:15.235Z,3.03
2023-09-14T02:30:43.641Z,3.10
2023-09-14T02:33:10.601Z,3.60
2023-09-14T02:35:38.104Z,3.28
2023-09-14T02:38:05.144Z,3.15
2023-09-14T02:40:32.927Z,3.00
2023-09-14T02:43:00.438Z,3.17
2023-09-14T02:45:27.358Z,3.20
2023-09-14T02:47:54.226Z,2.92
2023-09-14T02:50:21.944Z,3.30
2023-09-14T02:52:48.837Z,3.10
2023-09-14T02:55:15.740Z,3.40
2023-09-14T02:57:43.483Z,3.28
2023-09-14T03:00:13.812Z,3.05
2023-09-14T03:02:41.715Z,3.17
2023-09-14T03:05:10.644Z,3.40
2023-09-14T03:07:38.269Z,3.17
2023-09-14T03:10:06.185Z,3.40
2023-09-14T03:12:33.607Z,3.10
2023-09-14T03:15:00.438Z,3.20
2023-09-14T03:17:27.420Z,3.40
2023-09-14T03:19:54.730Z,3.33
2023-09-14T03:22:21.618Z,3.38
2023-09-14T03:24:48.468Z,3.58
2023-09-14T03:27:15.333Z,4.13
2023-09-14T03:29:42.650Z,3.25
2023-09-14T03:32:09.516Z,4.10
2023-09-14T03:34:36.402Z,3.40
2023-09-14T03:37:04.847Z,3.35
2023-09-14T03:39:31.842Z,3.63
2023-09-14T03:41:58.882Z,3.70
2023-09-14T03:44:25.642Z,3.67
2023-09-14T03:46:52.471Z,3.90
2023-09-14T03:49:19.272Z,3.80
2023-09-14T03:51:46.350Z,3.85
2023-09-14T03:54:13.177Z,3.50
2023-09-14T03:56:40.274Z,3.50
2023-09-14T03:59:07.067Z,3.63
2023-09-14T04:01:34.054Z,3.70
2023-09-14T04:04:01.088Z,3.58
2023-09-14T04:06:28.202Z,3.53
2023-09-14T04:08:55.037Z,3.28
2023-09-14T04:11:22.392Z,3.70
2023-09-14T04:13:50.172Z,3.45
2023-09-14T04:16:17.070Z,3.55
2023-09-14T04:18:47.191Z,3.42
2023-09-14T04:21:14.756Z,3.60
2023-09-14T04:23:41.523Z,3.58
2023-09-14T04:26:12.181Z,3.67
2023-09-14T04:28:39.129Z,3.80
2023-09-14T04:31:09.607Z,3.88
2023-09-14T04:33:37.299Z,4.28
2023-09-14T04:36:06.554Z,4.13
2023-09-14T04:38:34.762Z,3.38
2023-09-14T04:41:05.327Z,3.92
2023-09-14T04:43:33.954Z,3.17
2023-09-14T04:46:06.049Z,3.88
2023-09-14T04:48:33.776Z,4.03
2023-09-14T04:51:01.170Z,3.40
2023-09-14T04:53:28.699Z,3.55
2023-09-14T04:55:56.232Z,3.60
2023-09-14T04:58:26.326Z,3.42
2023-09-14T05:00:54.302Z,3.60
2023-09-14T05:03:22.084Z,3.67
2023-09-14T05:05:55.056Z,3.88
2023-09-14T05:08:22.777Z,3.42
2023-09-14T05:10:52.987Z,3.67
2023-09-14T05:13:24.350Z,4.00
2023-09-14T05:15:51.882Z,3.53
2023-09-14T05:18:24.322Z,3.53
2023-09-14T05:20:51.543Z,3.78
2023-09-14T05:23:18.476Z,3.80
2023-09-14T05:25:46.747Z,4.13
2023-09-14T05:28:14.087Z,3.78
2023-09-14T05:30:41.499Z,3.63
2023-09-14T05:33:10.823Z,3.60
2023-09-14T05:35:38.885Z,3.75
2023-09-14T05:38:05.889Z,3.58
2023-09-14T05:40:35.796Z,3.30
2023-09-14T05:43:02.772Z,3.45
2023-09-14T05:45:30.216Z,4.00
2023-09-14T05:47:58.205Z,3.45
2023-09-14T05:50:25.089Z,3.15
2023-09-14T05:52:52.016Z,3.08
2023-09-14T05:55:21.037Z,3.00
2023-09-14T05:57:49.359Z,3.65
2023-09-14T06:00:17.130Z,3.13
2023-09-14T06:02:51.879Z,3.42
2023-09-14T06:05:25.109Z,3.20
2023-09-14T06:07:54.898Z,3.03
2023-09-14T06:10:22.401Z,3.17
2023-09-14T06:12:51.842Z,3.30
2023-09-14T06:15:18.847Z,3.30
2023-09-14T06:17:48.098Z,3.10
2023-09-14T06:20:15.284Z,2.78
2023-09-14T06:22:42.172Z,2.85
2023-09-14T06:25:09.425Z,3.28
2023-09-14T06:27:36.248Z,2.85
2023-09-14T06:30:03.668Z,2.88
2023-09-14T06:32:30.425Z,3.00
2023-09-14T06:34:57.155Z,2.92
2023-09-14T06:37:23.879Z,2.90
2023-09-14T06:39:50.649Z,3.10
2023-09-14T06:42:17.462Z,2.78
2023-09-14T06:44:44.263Z,2.88
2023-09-14T06:47:11.114Z,2.42
2023-09-14T06:49:37.938Z,2.30
2023-09-14T06:52:05.040Z,2.40
2023-09-14T06:54:32.011Z,1.90
2023-09-14T06:56:59.418Z,2.25
2023-09-14T06:59:26.477Z,2.05
2023-09-14T07:01:53.308Z,2.22
2023-09-14T07:04:20.357Z,2.10
2023-09-14T07:06:48.053Z,2.13
2023-09-14T07:09:15.403Z,2.10
2023-09-14T07:11:42.540Z,2.30
2023-09-14T07:14:09.416Z,2.47
2023-09-14T07:16:36.360Z,2.03
2023-09-14T07:19:03.930Z,2.50
2023-09-14T07:21:33.621Z,2.60
2023-09-14T07:24:01.316Z,2.35
2023-09-14T07:26:28.110Z,2.40
2023-09-14T07:28:54.889Z,2.50
2023-09-14T07:31:21.873Z,2.40
2023-09-14T07:33:49.073Z,2.67
2023-09-14T07:36:16.337Z,2.22
2023-09-14T07:38:43.255Z,2.40
2023-09-14T07:41:10.139Z,2.47
2023-09-14T07:43:37.374Z,2.58
2023-09-14T07:46:04.322Z,2.60
2023-09-14T07:48:32.170Z,2.30
2023-09-14T07:50:58.915Z,2.50
2023-09-14T07:53:26.298Z,2.70
2023-09-14T07:55:56.100Z,2.47
2023-09-14T07:58:23.291Z,2.75
2023-09-14T08:00:50.487Z,2.70
2023-09-14T08:03:17.420Z,2.70
2023-09-14T08:05:44.619Z,2.60
2023-09-14T08:08:11.782Z,2.50
2023-09-14T08:10:38.849Z,2.60
2023-09-14T08:13:05.797Z,2.58
2023-09-14T08:15:32.622Z,2.95
2023-09-14T08:17:59.495Z,2.70
2023-09-14T08:20:26.278Z,2.85
2023-09-14T08:22:53.035Z,2.78
2023-09-14T08:25:19.866Z,2.33
2023-09-14T08:27:46.720Z,2.47
2023-09-14T08:30:13.600Z,2.60
2023-09-14T08:32:40.393Z,2.58
2023-09-14T08:35:24.860Z,2.97
2023-09-14T08:37:55.984Z,3.00
2023-09-14T08:40:23.954Z,2.70
2023-09-14T08:42:53.191Z,2.88
2023-09-14T08:45:24.904Z,2.88
2023-09-14T08:47:52.559Z,3.00
2023-09-14T08:50:21.192Z,2.80
2023-09-14T08:52:48.317Z,3.17
2023-09-14T08:55:18.094Z,3.15
2023-09-14T08:57:46.230Z,3.08
2023-09-14T09:00:18.674Z,3.20
2023-09-14T09:02:47.387Z,2.90
2023-09-14T09:05:16.216Z,3.50
2023-09-14T09:07:44.869Z,3.80
2023-09-14T09:10:24.345Z,3.53
2023-09-14T09:12:52.849Z,3.65
2023-09-14T09:15:19.808Z,3.25
2023-09-14T09:17:46.705Z,3.17
2023-09-14T09:20:16.195Z,2.97
2023-09-14T09:25:14.258Z,3.20
2023-09-14T09:27:41.111Z,3.90
2023-09-14T09:30:10.168Z,3.95
2023-09-14T09:32:39.143Z,4.10
2023-09-14T09:35:26.453Z,3.17
2023-09-14T09:37:55.605Z,3.20
2023-09-14T09:40:24.833Z,3.75
2023-09-14T09:42:53.502Z,3.00
2023-09-14T09:45:27.188Z,3.43
2023-09-14T09:47:54.948Z,3.33
2023-09-14T09:50:23.583Z,3.50
2023-09-14T09:52:50.884Z,3.47
2023-09-14T09:55:26.398Z,3.08
2023-09-14T09:57:55.602Z,3.30
2023-09-14T10:00:29.247Z,3.88
2023-09-14T10:02:56.408Z,3.08
2023-09-14T10:05:42.148Z,3.10
2023-09-14T10:08:22.604Z,3.35
2023-09-14T10:10:53.824Z,2.75
2023-09-14T10:13:25.960Z,3.05
2023-09-14T10:15:57.182Z,2.72
2023-09-14T10:18:26.763Z,2.60
2023-09-14T10:20:56.429Z,2.83
2023-09-14T10:23:24.217Z,2.72
2023-09-14T10:25:52.803Z,2.38
2023-09-14T10:28:23.528Z,2.70
2023-09-14T10:30:54.204Z,2.70
2023-09-14T10:33:21.746Z,2.58
2023-09-14T10:35:48.794Z,2.28
2023-09-14T10:38:18.261Z,2.50
2023-09-14T10:40:46.974Z,2.15
2023-09-14T10:43:13.861Z,2.27
2023-09-14T10:45:44.551Z,2.40
2023-09-14T10:48:17.352Z,2.10
2023-09-14T10:50:44.337Z,2.33
2023-09-14T10:53:13.973Z,2.53
2023-09-14T10:55:43.140Z,2.30
2023-09-14T10:58:17.567Z,2.00
2023-09-14T11:00:56.127Z,1.65
2023-09-14T11:03:26.072Z,1.67
2023-09-14T11:05:55.685Z,1.23
2023-09-14T11:11:02.048Z,1.55
2023-09-14T11:13:36.293Z,1.50
2023-09-14T11:16:15.915Z,1.92
2023-09-14T11:18:44.569Z,1.90
2023-09-14T11:21:34.608Z,1.92
2023-09-14T11:24:04.904Z,1.85
2023-09-14T11:26:34.745Z,2.35
2023-09-14T11:29:03.613Z,2.58
2023-09-14T11:31:45.866Z,1.80
2023-09-14T11:34:24.150Z,2.70
2023-09-14T11:36:57.552Z,2.28
2023-09-14T11:39:26.666Z,2.63
2023-09-14T11:41:59.845Z,2.58
2023-09-14T11:44:44.898Z,2.58
2023-09-14T11:47:15.328Z,2.65
2023-09-14T11:49:43.366Z,2.50
2023-09-14T11:52:12.309Z,2.90
2023-09-14T11:54:46.499Z,2.60
2023-09-14T11:57:13.902Z,2.70
2023-09-14T11:59:40.756Z,2.65
2023-09-14T12:02:07.693Z,2.85
2023-09-14T12:04:35.956Z,3.15
2023-09-14T12:07:04.967Z,3.15
2023-09-14T12:09:39.828Z,2.60
2023-09-14T12:12:10.905Z,2.97
2023-09-14T12:14:45.353Z,2.50
2023-09-14T12:17:24.217Z,2.47
2023-09-14T12:19:57.627Z,2.50
2023-09-14T12:22:27.781Z,2.25
2023-09-14T12:24:56.145Z,2.45
2023-09-14T12:27:23.550Z,2.35
2023-09-14T12:29:51.331Z,2.05
2023-09-14T12:32:18.586Z,1.60
2023-09-14T12:34:46.528Z,2.10
2023-09-14T12:37:17.817Z,2.10
2023-09-14T12:39:50.276Z,2.20
2023-09-14T12:42:22.535Z,2.03
2023-09-14T12:44:50.858Z,2.00
2023-09-14T12:47:17.806Z,2.20
2023-09-14T12:49:45.248Z,2.42
2023-09-14T12:52:12.463Z,2.60
2023-09-14T12:54:42.302Z,2.25
2023-09-14T12:57:15.768Z,2.50
2023-09-14T13:00:00.084Z,2.50
2023-09-14T13:02:27.493Z,2.60
2023-09-14T13:04:54.812Z,2.40
2023-09-14T13:07:21.716Z,2.13
2023-09-14T13:09:48.661Z,2.13
2023-09-14T13:12:25.521Z,2.03
2023-09-14T13:14:52.357Z,2.10
2023-09-14T13:17:22.478Z,2.00
2023-09-14T13:19:49.345Z,2.10
2023-09-14T13:22:16.444Z,2.10
2023-09-14T13:24:43.287Z,2.00
2023-09-14T13:27:10.023Z,1.73
2023-09-14T13:29:36.754Z,2.17
2023-09-14T13:32:05.153Z,1.90
2023-09-14T13:34:32.400Z,2.15
2023-09-14T13:36:59.398Z,2.30
2023-09-14T13:39:26.592Z,2.20
2023-09-14T13:41:55.749Z,2.20
2023-09-14T13:44:24.400Z,2.00
2023-09-14T13:46:51.163Z,2.00
2023-09-14T13:49:17.928Z,1.83
2023-09-14T13:51:45.017Z,1.70
2023-09-14T13:54:11.886Z,1.85
2023-09-14T13:56:38.782Z,1.70
2023-09-14T13:59:05.697Z,1.90
2023-09-14T14:01:32.636Z,2.00
2023-09-14T14:03:59.728Z,1.55
2023-09-14T14:06:26.716Z,1.60
2023-09-14T14:08:53.389Z,2.00
2023-09-14T14:11:21.396Z,1.70
2023-09-14T14:13:48.370Z,1.80
2023-09-14T14:16:15.178Z,2.03
2023-09-14T14:18:42.076Z,1.90
2023-09-14T14:21:08.857Z,1.80
2023-09-14T14:23:35.752Z,1.70
2023-09-14T14:26:03.023Z,2.03
2023-09-14T14:28:29.839Z,1.83
2023-09-14T14:30:56.724Z,1.85
2023-09-14T14:33:23.486Z,1.90
2023-09-14T14:35:50.338Z,1.98
2023-09-14T14:38:17.143Z,1.83
2023-09-14T14:43:13.461Z,1.75
2023-09-14T14:45:40.382Z,1.95
2023-09-14T14:48:07.396Z,1.80
2023-09-14T14:50:34.290Z,1.80
2023-09-14T14:53:01.114Z,2.05
2023-09-14T14:55:28.071Z,1.77
2023-09-14T14:57:55.005Z,2.10
2023-09-14T15:00:21.835Z,2.10
2023-09-14T15:02:48.776Z,2.00
2023-09-14T15:05:15.980Z,1.85
2023-09-14T15:07:42.790Z,2.05
2023-09-14T15:10:09.795Z,2.17
2023-09-14T15:12:36.609Z,2.10
2023-09-14T15:15:03.729Z,2.00
2023-09-14T15:17:30.637Z,2.30
2023-09-14T15:19:57.514Z,2.10
2023-09-14T15:22:24.403Z,2.10
2023-09-14T15:24:51.260Z,2.20
2023-09-14T15:27:18.165Z,2.10
2023-09-14T15:29:44.972Z,1.98
2023-09-14T15:32:11.675Z,1.95
2023-09-14T15:34:38.572Z,2.25
2023-09-14T15:37:05.345Z,2.22
2023-09-14T15:39:32.576Z,2.10
2023-09-14T15:41:59.462Z,2.08
2023-09-14T15:44:26.185Z,2.00
2023-09-14T15:46:52.950Z,2.40
2023-09-14T15:49:20.617Z,2.10
2023-09-14T15:51:47.456Z,1.90
2023-09-14T15:54:16.699Z,1.77
2023-09-14T15:56:43.955Z,2.50
2023-09-14T15:59:11.533Z,2.10
2023-09-14T16:01:38.871Z,2.05
2023-09-14T16:04:06.478Z,2.10
2023-09-14T16:06:33.945Z,2.08
2023-09-14T16:09:00.792Z,2.00
2023-09-14T16:11:27.973Z,2.08
2023-09-14T16:13:54.922Z,2.00
2023-09-14T16:16:21.815Z,1.98
2023-09-14T16:18:48.929Z,1.80
2023-09-14T16:21:15.955Z,1.90
2023-09-14T16:23:42.756Z,1.90
2023-09-14T16:26:09.930Z,2.10
2023-09-14T16:28:36.672Z,1.90
2023-09-14T16:31:03.514Z,2.05
2023-09-14T16:33:30.408Z,1.90
2023-09-14T16:35:58.215Z,1.90
2023-09-14T16:38:25.381Z,2.10
2023-09-14T16:40:52.359Z,2.20
2023-09-14T16:43:20.163Z,1.80
2023-09-14T16:45:49.154Z,2.10
2023-09-14T16:48:16.134Z,2.20
2023-09-14T16:50:42.889Z,2.10
2023-09-14T16:53:09.689Z,2.13
2023-09-14T16:55:36.464Z,2.10
2023-09-14T16:58:03.853Z,2.22
2023-09-14T17:00:31.015Z,2.30
2023-09-14T17:02:58.025Z,2.10
2023-09-14T17:05:24.805Z,2.05
2023-09-14T17:07:51.685Z,1.90
2023-09-14T17:10:19.560Z,1.92
2023-09-14T17:12:46.311Z,2.10
2023-09-14T17:15:14.044Z,2.00
2023-09-14T17:17:41.055Z,2.30
2023-09-14T17:20:08.817Z,2.28
2023-09-14T17:22:35.576Z,2.30
2023-09-14T17:25:02.928Z,2.13
2023-09-14T17:27:30.884Z,2.15
2023-09-14T17:29:57.731Z,2.00
2023-09-14T17:32:24.412Z,2.50
2023-09-14T17:34:51.269Z,2.58
2023-09-14T17:37:18.996Z,2.13
2023-09-14T17:39:45.889Z,1.90
2023-09-14T17:42:12.717Z,2.05
2023-09-14T17:44:42.273Z,1.92
2023-09-14T17:47:09.822Z,2.65
2023-09-14T17:49:36.724Z,2.40
2023-09-14T17:52:06.701Z,2.33
2023-09-14T17:54:35.142Z,2.05
2023-09-14T17:57:02.688Z,2.40
2023-09-14T17:59:29.441Z,2.13
2023-09-14T18:01:56.308Z,2.25
2023-09-14T18:04:23.346Z,2.42
2023-09-14T18:06:50.858Z,2.30
2023-09-14T18:09:17.594Z,2.50
2023-09-14T18:11:44.384Z,2.60
2023-09-14T18:14:11.187Z,2.55
2023-09-14T18:16:39.324Z,2.25
2023-09-14T18:19:06.313Z,2.55
2023-09-14T18:21:33.129Z,2.17
2023-09-14T18:23:59.864Z,2.20
2023-09-14T18:26:26.923Z,2.33
2023-09-14T18:28:58.115Z,2.60
2023-09-14T18:31:25.296Z,2.20
2023-09-14T18:33:52.117Z,2.40
2023-09-14T18:36:18.962Z,2.53
2023-09-14T18:38:45.977Z,2.40
2023-09-14T18:41:15.041Z,2.15
2023-09-14T18:43:42.057Z,2.47
2023-09-14T18:46:14.088Z,2.33
2023-09-14T18:48:40.955Z,2.63
2023-09-14T18:51:08.541Z,2.22
2023-09-14T18:53:36.003Z,2.45
2023-09-14T18:56:02.793Z,2.70
2023-09-14T19:03:27.488Z,2.70
2023-09-14T19:05:56.491Z,2.60
2023-09-14T19:08:23.619Z,2.70
2023-09-14T19:10:56.724Z,2.67
2023-09-14T19:13:23.710Z,2.30
2023-09-14T19:15:51.156Z,2.50
2023-09-14T19:18:18.272Z,2.60
2023-09-14T19:20:49.269Z,2.42
2023-09-14T19:23:16.342Z,2.63
2023-09-14T19:25:44.271Z,2.75
2023-09-14T19:28:11.528Z,2.80
2023-09-14T19:30:42.510Z,3.05
2023-09-14T19:33:09.331Z,2.60
2023-09-14T19:35:36.098Z,2.90
2023-09-14T19:38:03.133Z,3.03
2023-09-14T19:40:30.091Z,2.88
2023-09-14T19:42:57.287Z,3.10
2023-09-14T19:45:24.321Z,2.53
2023-09-14T19:47:53.032Z,2.67
2023-09-14T19:50:21.649Z,2.87
2023-09-14T19:52:48.408Z,2.87
2023-09-14T19:55:15.240Z,2.80
2023-09-14T19:57:42.058Z,2.80
2023-09-14T20:00:09.287Z,2.78
2023-09-14T20:02:36.356Z,2.72
2023-09-14T20:05:04.721Z,2.70
2023-09-14T20:07:31.689Z,2.80
2023-09-14T20:09:58.555Z,3.05
2023-09-14T20:12:25.688Z,2.95
2023-09-14T20:14:52.631Z,2.80
2023-09-14T20:17:19.501Z,3.05
2023-09-14T20:19:46.482Z,2.90
2023-09-14T20:22:15.203Z,3.10
2023-09-14T20:24:44.773Z,3.00
2023-09-14T20:29:39.081Z,3.20
2023-09-14T20:32:05.794Z,3.40
2023-09-14T20:34:32.633Z,3.78
2023-09-14T20:36:59.503Z,3.60
2023-09-14T20:39:29.620Z,3.53
2023-09-14T20:41:57.766Z,4.03
2023-09-14T20:44:25.383Z,3.20
2023-09-14T20:46:52.488Z,3.22
2023-09-14T20:49:22.212Z,3.45
2023-09-14T20:51:49.451Z,3.13
2023-09-14T20:54:20.971Z,3.47
2023-09-14T20:56:48.371Z,3.30
2023-09-14T20:59:18.183Z,3.20
2023-09-14T21:01:45.968Z,2.95
2023-09-14T21:04:12.985Z,3.08
2023-09-14T21:06:40.220Z,3.20
2023-09-14T21:09:08.045Z,3.35
2023-09-14T21:11:38.190Z,3.15
2023-09-14T21:14:08.377Z,3.15
2023-09-14T21:16:36.376Z,3.17
2023-09-14T21:19:03.359Z,3.22
2023-09-14T21:21:30.391Z,3.10
2023-09-14T21:23:57.282Z,3.42
2023-09-14T21:26:24.062Z,3.15
2023-09-14T21:28:50.804Z,2.45
2023-09-14T21:31:17.760Z,2.90
2023-09-14T21:33:45.382Z,3.25
2023-09-14T21:36:12.761Z,3.08
2023-09-14T21:38:39.755Z,3.00
2023-09-14T21:41:06.867Z,2.75
2023-09-14T21:43:37.630Z,2.92
2023-09-14T21:46:09.457Z,2.88
2023-09-14T21:48:36.641Z,2.80
2023-09-14T21:51:04.015Z,2.78
2023-09-14T21:53:30.958Z,2.90
2023-09-14T21:55:57.807Z,2.47
2023-09-14T21:58:25.698Z,2.83
2023-09-14T22:00:53.194Z,3.28
2023-09-14T22:03:20.936Z,2.88
2023-09-14T22:05:51.469Z,2.97
2023-09-14T22:08:18.772Z,2.88
2023-09-14T22:10:46.116Z,2.65
2023-09-14T22:13:13.536Z,2.83
2023-09-14T22:15:45.162Z,3.00
2023-09-14T22:18:13.663Z,2.65
2023-09-14T22:20:40.597Z,2.70
2023-09-14T22:23:10.644Z,2.40
2023-09-14T22:25:42.239Z,2.50
2023-09-14T22:28:09.358Z,2.75
2023-09-14T22:30:37.120Z,2.55
2023-09-14T22:33:05.366Z,2.08
2023-09-14T22:35:33.161Z,2.70
2023-09-14T22:38:00.136Z,2.35
2023-09-14T22:40:26.923Z,2.30
2023-09-14T22:42:54.001Z,2.30
2023-09-14T22:45:22.224Z,2.22
2023-09-14T22:47:50.079Z,1.90
2023-09-14T22:50:17.661Z,2.00
2023-09-14T22:52:45.708Z,2.30
2023-09-14T22:55:13.713Z,2.25
2023-09-14T22:57:41.513Z,1.95
2023-09-14T23:00:12.180Z,2.30
2023-09-14T23:02:39.708Z,2.13
2023-09-14T23:05:11.206Z,2.10
2023-09-14T23:07:39.986Z,2.00
2023-09-14T23:10:11.647Z,2.07
2023-09-14T23:12:41.817Z,2.15
2023-09-14T23:15:10.442Z,2.20
2023-09-14T23:17:38.675Z,1.98
2023-09-14T23:20:37.420Z,2.20
2023-09-14T23:23:04.543Z,2.07
2023-09-14T23:25:32.406Z,2.33
2023-09-14T23:27:59.869Z,2.10
2023-09-14T23:30:28.304Z,2.30
2023-09-14T23:32:55.229Z,2.17
2023-09-14T23:35:24.161Z,1.90
2023-09-14T23:37:52.309Z,2.13
2023-09-14T23:40:36.003Z,2.13
2023-09-14T23:43:11.524Z,2.42
2023-09-14T23:45:38.866Z,2.08
2023-09-14T23:48:08.567Z,2.00
2023-09-14T23:50:36.546Z,2.08
2023-09-14T23:53:03.806Z,2.50
2023-09-14T23:55:30.855Z,2.08
2023-09-14T23:57:58.145Z,2.15
